createdAt,value
2023-03-12T00:01:19.483Z,88.27
2023-03-12T00:03:50.103Z,88.39
2023-03-12T00:06:21.189Z,88.46
2023-03-12T00:08:50.034Z,88.42
2023-03-12T00:11:21.074Z,88.36
2023-03-12T00:13:51.304Z,88.06
2023-03-12T00:16:19.812Z,88.10
2023-03-12T00:18:51.651Z,87.82
2023-03-12T00:21:20.528Z,88.05
2023-03-12T00:23:49.319Z,88.11
2023-03-12T00:26:18.605Z,87.87
2023-03-12T00:28:48.423Z,87.87
2023-03-12T00:31:18.527Z,88.14
2023-03-12T00:33:49.433Z,87.84
2023-03-12T00:36:19.974Z,87.72
2023-03-12T00:38:48.345Z,87.91
2023-03-12T00:41:16.669Z,87.74
2023-03-12T00:43:44.934Z,87.77
2023-03-12T00:46:13.502Z,87.46
2023-03-12T00:48:42.448Z,87.09
2023-03-12T00:51:11.099Z,86.91
2023-03-12T00:53:40.908Z,86.85
2023-03-12T00:56:10.389Z,86.81
2023-03-12T00:58:38.604Z,86.95
2023-03-12T01:01:07.684Z,86.83
2023-03-12T01:03:36.976Z,87.01
2023-03-12T01:06:05.988Z,86.55
2023-03-12T01:08:34.863Z,86.62
2023-03-12T01:11:05.235Z,86.42
2023-03-12T01:13:33.569Z,86.89
2023-03-12T01:16:01.944Z,86.71
2023-03-12T01:18:30.812Z,86.88
2023-03-12T01:20:59.532Z,87.17
2023-03-12T01:23:28.074Z,86.96
2023-03-12T01:25:56.583Z,86.54
2023-03-12T01:28:27.278Z,86.60
2023-03-12T01:30:55.618Z,86.83
2023-03-12T01:33:24.183Z,87.07
2023-03-12T01:35:52.722Z,86.56
2023-03-12T01:38:21.317Z,86.65
2023-03-12T01:40:49.580Z,86.51
2023-03-12T01:43:28.602Z,86.09
2023-03-12T01:46:22.984Z,86.04
2023-03-12T01:48:56.513Z,86.43
2023-03-12T01:51:28.219Z,86.48
2023-03-12T01:54:01.778Z,86.39
2023-03-12T01:56:35.885Z,86.43
2023-03-12T01:59:08.301Z,86.52
2023-03-12T02:01:36.849Z,86.62
2023-03-12T02:04:05.561Z,86.64
2023-03-12T02:06:40.443Z,86.50
2023-03-12T02:09:09.286Z,86.71
2023-03-12T02:11:37.921Z,86.40
2023-03-12T02:14:07.890Z,86.52
2023-03-12T02:16:36.312Z,86.52
2023-03-12T02:19:12.410Z,86.40
2023-03-12T02:21:41.146Z,86.58
2023-03-12T02:24:19.640Z,86.71
2023-03-12T02:26:49.987Z,86.67
2023-03-12T02:29:19.367Z,86.67
2023-03-12T02:31:53.318Z,86.73
2023-03-12T02:34:21.754Z,86.63
2023-03-12T02:36:50.521Z,86.84
2023-03-12T02:39:19.729Z,86.75
2023-03-12T02:41:53.685Z,86.87
2023-03-12T02:44:25.252Z,86.94
2023-03-12T02:46:56.866Z,86.70
2023-03-12T02:49:27.526Z,86.79
2023-03-12T02:51:56.334Z,86.66
2023-03-12T02:54:25.272Z,86.63
2023-03-12T02:56:55.171Z,86.77
2023-03-12T02:59:26.943Z,86.51
2023-03-12T03:01:59.806Z,86.69
2023-03-12T03:04:29.368Z,86.47
2023-03-12T03:06:58.718Z,86.45
2023-03-12T03:09:27.601Z,86.58
2023-03-12T03:11:58.725Z,86.59
2023-03-12T03:14:28.878Z,86.54
2023-03-12T03:16:57.312Z,86.05
2023-03-12T03:19:25.767Z,86.21
2023-03-12T03:21:54.075Z,86.16
2023-03-12T03:24:22.554Z,86.27
2023-03-12T03:26:50.910Z,86.34
2023-03-12T03:29:20.680Z,86.44
2023-03-12T03:31:49.221Z,86.19
2023-03-12T03:34:18.582Z,86.38
2023-03-12T03:36:47.100Z,86.15
2023-03-12T03:39:17.593Z,86.30
2023-03-12T03:41:47.386Z,86.20
2023-03-12T03:44:20.208Z,86.20
2023-03-12T03:46:49.934Z,86.29
2023-03-12T03:49:18.605Z,86.33
2023-03-12T03:51:47.142Z,86.10
2023-03-12T03:54:19.206Z,86.25
2023-03-12T03:56:48.334Z,86.12
2023-03-12T03:59:16.725Z,86.15
2023-03-12T04:01:47.435Z,86.29
2023-03-12T04:04:16.170Z,86.26
2023-03-12T04:06:44.706Z,86.17
2023-03-12T04:09:13.095Z,86.00
2023-03-12T04:11:42.082Z,86.24
2023-03-12T04:14:12.538Z,86.33
2023-03-12T04:16:43.691Z,86.30
2023-03-12T04:19:13.785Z,86.18
2023-03-12T04:21:42.387Z,86.18
2023-03-12T04:24:15.578Z,86.19
2023-03-12T04:26:44.889Z,85.95
2023-03-12T04:29:13.830Z,86.49
2023-03-12T04:31:43.686Z,86.17
2023-03-12T04:34:14.616Z,86.18
2023-03-12T04:36:48.076Z,86.30
2023-03-12T04:39:19.591Z,86.12
2023-03-12T04:41:50.512Z,86.52
2023-03-12T04:44:19.394Z,86.25
2023-03-12T04:46:47.887Z,86.14
2023-03-12T04:49:21.399Z,86.48
2023-03-12T04:51:49.991Z,86.60
2023-03-12T04:54:21.111Z,86.58
2023-03-12T04:56:50.229Z,86.54
2023-03-12T04:59:19.491Z,86.58
2023-03-12T05:01:48.156Z,86.54
2023-03-12T05:04:23.016Z,86.35
2023-03-12T05:06:52.321Z,86.62
2023-03-12T05:09:20.739Z,86.39
2023-03-12T05:11:49.552Z,86.11
2023-03-12T05:14:21.158Z,86.42
2023-03-12T05:16:50.593Z,86.33
2023-03-12T05:19:19.313Z,86.39
2023-03-12T05:21:49.214Z,86.50
2023-03-12T05:24:19.095Z,86.69
2023-03-12T05:26:48.710Z,86.53
2023-03-12T05:29:19.644Z,86.74
2023-03-12T05:31:47.969Z,86.62
2023-03-12T05:34:16.424Z,86.69
2023-03-12T05:36:46.554Z,86.55
2023-03-12T05:39:20.343Z,86.73
2023-03-12T05:41:49.538Z,86.48
2023-03-12T05:44:20.275Z,86.58
2023-03-12T05:46:53.626Z,86.60
2023-03-12T05:49:25.292Z,86.71
2023-03-12T05:51:55.527Z,86.77
2023-03-12T05:54:26.735Z,86.45
2023-03-12T05:56:56.898Z,86.59
2023-03-12T05:59:26.991Z,86.72
2023-03-12T06:01:58.479Z,86.56
2023-03-12T06:04:27.214Z,86.48
2023-03-12T06:06:55.575Z,86.70
2023-03-12T06:09:24.599Z,86.51
2023-03-12T06:11:55.463Z,86.51
2023-03-12T06:14:23.801Z,86.36
2023-03-12T06:16:52.329Z,86.43
2023-03-12T06:19:20.918Z,86.62
2023-03-12T06:21:51.228Z,86.46
2023-03-12T06:24:20.024Z,86.58
2023-03-12T06:26:57.756Z,86.05
2023-03-12T06:29:26.139Z,86.08
2023-03-12T06:31:56.088Z,86.38
2023-03-12T06:34:24.445Z,86.31
2023-03-12T06:36:52.740Z,86.16
2023-03-12T06:39:21.262Z,86.24
2023-03-12T06:41:49.762Z,86.12
2023-03-12T06:44:19.691Z,86.04
2023-03-12T06:46:48.174Z,86.13
2023-03-12T06:49:16.808Z,86.00
2023-03-12T06:51:45.148Z,85.86
2023-03-12T06:54:13.506Z,85.62
2023-03-12T06:56:42.226Z,85.77
2023-03-12T06:59:10.666Z,85.66
2023-03-12T07:01:40.455Z,85.87
2023-03-12T07:04:08.675Z,85.95
2023-03-12T07:06:37.025Z,85.64
2023-03-12T07:09:06.149Z,85.72
2023-03-12T07:11:34.697Z,85.60
2023-03-12T07:14:03.535Z,85.27
2023-03-12T07:16:31.893Z,85.38
2023-03-12T07:19:01.635Z,85.23
2023-03-12T07:21:31.860Z,85.10
2023-03-12T07:24:01.105Z,85.43
2023-03-12T07:26:29.504Z,85.29
2023-03-12T07:28:58.341Z,85.81
2023-03-12T07:31:26.620Z,85.32
2023-03-12T07:33:55.143Z,85.43
2023-03-12T07:36:24.965Z,85.27
2023-03-12T07:38:53.437Z,85.49
2023-03-12T07:41:21.823Z,85.13
2023-03-12T07:43:50.610Z,84.84
2023-03-12T07:46:18.943Z,85.32
2023-03-12T07:48:48.711Z,85.46
2023-03-12T07:51:16.984Z,85.09
2023-03-12T07:53:46.638Z,85.20
2023-03-12T07:56:15.060Z,85.04
2023-03-12T07:58:43.723Z,85.00
2023-03-12T08:01:12.293Z,84.94
2023-03-12T08:03:40.852Z,84.81
2023-03-12T08:06:09.349Z,84.87
2023-03-12T08:08:41.704Z,84.72
2023-03-12T08:11:11.595Z,84.78
2023-03-12T08:13:39.916Z,84.76
2023-03-12T08:16:09.531Z,85.11
2023-03-12T08:18:38.281Z,84.91
2023-03-12T08:21:06.882Z,84.80
2023-03-12T08:23:36.844Z,84.95
2023-03-12T08:26:05.252Z,84.74
2023-03-12T08:28:34.957Z,84.91
2023-03-12T08:31:03.644Z,84.96
2023-03-12T08:33:33.536Z,85.07
2023-03-12T08:36:02.265Z,84.96
2023-03-12T08:38:30.703Z,84.98
2023-03-12T08:40:59.806Z,85.17
2023-03-12T08:43:29.640Z,84.93
2023-03-12T08:46:01.285Z,84.79
2023-03-12T08:48:31.543Z,85.66
2023-03-12T08:51:01.121Z,85.78
2023-03-12T08:53:31.379Z,85.67
2023-03-12T08:56:00.486Z,86.12
2023-03-12T08:58:30.415Z,86.18
2023-03-12T09:01:00.325Z,86.17
2023-03-12T09:03:28.712Z,86.22
2023-03-12T09:06:09.896Z,86.30
2023-03-12T09:08:38.333Z,86.48
2023-03-12T09:11:06.901Z,86.54
2023-03-12T09:13:55.525Z,86.98
2023-03-12T09:16:24.956Z,87.04
2023-03-12T09:18:53.388Z,86.89
2023-03-12T09:21:22.106Z,86.80
2023-03-12T09:23:51.230Z,86.95
2023-03-12T09:26:19.505Z,87.04
2023-03-12T09:28:48.077Z,87.45
2023-03-12T09:31:16.346Z,87.64
2023-03-12T09:33:46.716Z,87.83
2023-03-12T09:36:15.018Z,88.28
2023-03-12T09:38:43.514Z,88.11
2023-03-12T09:41:21.368Z,88.27
2023-03-12T09:43:55.588Z,88.13
2023-03-12T09:46:27.955Z,88.10
2023-03-12T09:48:59.291Z,87.95
2023-03-12T09:51:34.327Z,87.78
2023-03-12T09:54:07.444Z,87.63
2023-03-12T09:56:36.140Z,87.50
2023-03-12T09:59:04.995Z,87.60
2023-03-12T10:01:45.161Z,87.39
2023-03-12T10:04:58.565Z,87.13
2023-03-12T10:07:35.090Z,87.15
2023-03-12T10:10:15.464Z,86.74
2023-03-12T10:12:55.274Z,87.42
2023-03-12T10:15:35.295Z,87.60
2023-03-12T10:18:19.944Z,86.85
2023-03-12T10:21:00.195Z,86.90
2023-03-12T10:23:41.055Z,86.59
2023-03-12T10:26:14.958Z,85.70
2023-03-12T10:28:46.971Z,85.31
2023-03-12T10:31:21.088Z,84.81
2023-03-12T10:33:54.362Z,84.74
2023-03-12T10:36:28.452Z,84.59
2023-03-12T10:38:56.589Z,83.64
2023-03-12T10:41:27.754Z,83.50
2023-03-12T10:43:58.598Z,82.42
2023-03-12T10:46:59.888Z,81.55
2023-03-12T10:49:34.695Z,81.70
2023-03-12T10:52:08.191Z,81.59
2023-03-12T10:54:38.691Z,81.24
2023-03-12T10:57:07.442Z,81.59
2023-03-12T10:59:39.038Z,81.68
2023-03-12T11:02:32.891Z,81.41
2023-03-12T11:05:03.503Z,81.26
2023-03-12T11:07:35.650Z,81.14
2023-03-12T11:10:25.838Z,81.06
2023-03-12T11:13:03.343Z,81.71
2023-03-12T11:15:40.703Z,81.76
2023-03-12T11:18:22.021Z,81.50
2023-03-12T11:20:53.058Z,82.42
2023-03-12T11:23:27.347Z,82.64
2023-03-12T11:25:58.393Z,83.35
2023-03-12T11:28:33.739Z,84.04
2023-03-12T11:31:03.297Z,84.23
2023-03-12T11:33:31.751Z,84.68
2023-03-12T11:36:09.910Z,84.31
2023-03-12T11:38:44.676Z,84.97
2023-03-12T11:41:33.927Z,84.96
2023-03-12T11:44:19.877Z,85.24
2023-03-12T11:47:01.068Z,85.80
2023-03-12T11:49:43.246Z,86.62
2023-03-12T11:52:20.889Z,87.34
2023-03-12T11:55:16.960Z,87.54
2023-03-12T11:57:58.332Z,87.89
2023-03-12T12:00:33.893Z,88.43
2023-03-12T12:03:25.397Z,88.54
2023-03-12T12:06:03.325Z,88.99
2023-03-12T12:08:59.631Z,89.08
2023-03-12T12:11:42.003Z,89.40
2023-03-12T12:14:21.561Z,89.58
2023-03-12T12:17:08.478Z,90.17
2023-03-12T12:19:52.234Z,90.35
2023-03-12T12:22:37.507Z,90.90
2023-03-12T12:25:30.051Z,91.08
2023-03-12T12:28:21.986Z,91.59
2023-03-12T12:31:16.397Z,91.51
2023-03-12T12:33:56.870Z,91.97
2023-03-12T12:36:28.702Z,92.23
2023-03-12T12:39:05.843Z,92.68
2023-03-12T12:41:37.186Z,92.66
2023-03-12T12:44:14.043Z,92.61
2023-03-12T12:46:46.492Z,93.06
2023-03-12T12:49:17.349Z,93.13
2023-03-12T12:51:50.038Z,93.60
2023-03-12T12:54:27.524Z,93.73
2023-03-12T12:57:03.635Z,93.89
2023-03-12T12:59:40.043Z,93.72
2023-03-12T13:02:18.048Z,93.59
2023-03-12T13:04:49.501Z,93.66
2023-03-12T13:07:35.189Z,93.50
2023-03-12T13:10:09.057Z,93.65
2023-03-12T13:12:44.619Z,93.17
2023-03-12T13:15:40.847Z,92.96
2023-03-12T13:18:19.610Z,93.43
2023-03-12T13:21:10.904Z,93.39
2023-03-12T13:23:47.136Z,93.61
2023-03-12T13:26:31.783Z,93.75
2023-03-12T13:29:29.128Z,93.40
2023-03-12T13:32:12.818Z,93.63
2023-03-12T13:35:00.884Z,93.76
2023-03-12T13:38:18.851Z,94.03
2023-03-12T13:41:08.092Z,94.27
2023-03-12T13:44:07.773Z,94.11
2023-03-12T13:46:57.817Z,93.92
2023-03-12T13:49:54.761Z,94.07
2023-03-12T13:52:43.707Z,94.55
2023-03-12T13:55:36.833Z,94.74
2023-03-12T13:58:30.106Z,94.22
2023-03-12T14:01:14.844Z,94.78
2023-03-12T14:04:07.015Z,94.08
2023-03-12T14:07:05.733Z,94.17
2023-03-12T14:10:06.119Z,94.31
2023-03-12T14:12:55.967Z,94.18
2023-03-12T14:15:52.770Z,93.75
2023-03-12T14:18:45.778Z,93.71
2023-03-12T14:21:41.046Z,93.63
2023-03-12T14:24:32.711Z,93.81
2023-03-12T14:27:26.024Z,93.66
2023-03-12T14:30:17.709Z,93.78
2023-03-12T14:33:10.032Z,93.93
2023-03-12T14:35:56.739Z,93.86
2023-03-12T14:38:49.119Z,94.00
2023-03-12T14:41:37.747Z,94.03
2023-03-12T14:44:31.035Z,94.34
2023-03-12T14:47:16.697Z,94.42
2023-03-12T14:50:06.019Z,94.35
2023-03-12T14:52:47.673Z,94.27
2023-03-12T14:55:35.969Z,94.11
2023-03-12T14:58:26.724Z,94.04
2023-03-12T15:01:21.050Z,94.18
2023-03-12T15:04:05.644Z,94.30
2023-03-12T15:06:46.899Z,94.40
2023-03-12T15:09:19.489Z,94.07
2023-03-12T15:11:55.516Z,93.67
2023-03-12T15:14:28.313Z,93.69
2023-03-12T15:17:00.292Z,93.66
2023-03-12T15:19:34.683Z,93.64
2023-03-12T15:22:04.518Z,93.83
2023-03-12T15:24:40.806Z,93.98
2023-03-12T15:27:31.021Z,93.61
2023-03-12T15:30:22.702Z,93.79
2023-03-12T15:33:11.622Z,93.52
2023-03-12T15:35:42.990Z,93.68
2023-03-12T15:38:19.528Z,93.32
2023-03-12T15:40:54.020Z,93.53
2023-03-12T15:43:25.210Z,93.65
2023-03-12T15:46:02.229Z,93.45
2023-03-12T15:48:33.727Z,93.22
2023-03-12T15:51:02.584Z,93.60
2023-03-12T15:53:32.744Z,93.48
2023-03-12T15:56:06.096Z,93.23
2023-03-12T15:58:36.012Z,93.42
2023-03-12T16:01:11.027Z,93.12
2023-03-12T16:03:39.956Z,93.18
2023-03-12T16:06:14.232Z,93.26
2023-03-12T16:08:46.026Z,93.36
2023-03-12T16:11:18.553Z,93.34
2023-03-12T16:13:48.666Z,93.23
2023-03-12T16:16:19.148Z,93.39
2023-03-12T16:18:47.441Z,93.67
2023-03-12T16:21:15.821Z,93.17
2023-03-12T16:23:44.080Z,93.70
2023-03-12T16:26:14.504Z,93.40
2023-03-12T16:28:45.728Z,93.32
2023-03-12T16:31:14.532Z,93.21
2023-03-12T16:33:44.906Z,93.35
2023-03-12T16:36:17.847Z,92.85
2023-03-12T16:38:46.472Z,93.34
2023-03-12T16:41:23.728Z,93.22
2023-03-12T16:43:54.943Z,93.08
2023-03-12T16:46:31.801Z,92.90
2023-03-12T16:50:55.760Z,92.90
2023-03-12T16:52:43.234Z,93.02
2023-03-12T17:18:12.494Z,93.32
2023-03-12T17:22:04.597Z,93.19
2023-03-12T17:25:35.236Z,93.25
2023-03-12T17:40:45.037Z,93.36
2023-03-12T17:45:04.565Z,93.16
2023-03-12T17:59:38.191Z,92.78
2023-03-12T18:10:22.894Z,93.43
2023-03-12T19:33:29.675Z,92.88
2023-03-12T19:36:05.844Z,92.73
2023-03-12T19:38:34.334Z,92.71
2023-03-12T19:41:46.706Z,92.52
2023-03-12T19:55:25.322Z,92.67
2023-03-12T19:59:17.321Z,92.78
2023-03-12T20:02:44.955Z,92.79
2023-03-12T20:06:42.382Z,92.63
2023-03-12T20:09:55.924Z,92.63
2023-03-12T20:12:35.067Z,92.66
2023-03-12T20:15:05.711Z,92.70
2023-03-12T20:17:44.479Z,92.62
2023-03-12T20:20:16.759Z,92.50
2023-03-12T20:22:45.284Z,92.41
2023-03-12T20:25:51.101Z,92.74
2023-03-12T20:28:32.798Z,92.80
2023-03-12T20:31:11.922Z,92.71
2023-03-12T20:33:54.577Z,92.70
2023-03-12T20:36:24.361Z,92.59
2023-03-12T20:38:55.025Z,92.46
2023-03-12T20:41:30.674Z,92.56
2023-03-12T20:44:19.540Z,92.45
2023-03-12T20:51:47.511Z,92.40
2023-03-12T20:54:53.528Z,92.75
2023-03-12T20:57:40.048Z,92.67
2023-03-12T21:07:15.905Z,92.79
2023-03-12T21:13:22.046Z,92.97
2023-03-12T21:16:48.671Z,93.04
2023-03-12T21:27:35.652Z,92.67
2023-03-12T21:34:39.982Z,92.62
2023-03-12T21:38:31.848Z,92.81
2023-03-12T21:48:26.210Z,92.79
2023-03-12T21:55:23.300Z,92.59
2023-03-12T23:06:11.872Z,92.49
2023-03-12T23:43:19.931Z,93.00
2023-03-12T23:46:36.361Z,92.89
2023-03-12T23:50:01.825Z,93.00
